createdAt,value
2016-08-31T00:00:08.345Z,48.97
2016-08-31T00:01:08.415Z,49.17
2016-08-31T00:02:08.321Z,48.88
2016-08-31T00:03:08.310Z,48.88
2016-08-31T00:04:08.280Z,48.88
2016-08-31T00:05:08.273Z,48.88
2016-08-31T00:06:08.253Z,48.95
2016-08-31T00:07:08.248Z,48.76
2016-08-31T00:08:08.233Z,49.05
2016-08-31T00:09:08.209Z,48.97
2016-08-31T00:10:08.379Z,48.69
2016-08-31T00:11:08.174Z,48.47
2016-08-31T00:12:08.159Z,48.79
2016-08-31T00:13:08.147Z,48.86
2016-08-31T00:14:08.143Z,48.76
2016-08-31T00:15:08.120Z,48.88
2016-08-31T00:16:08.101Z,48.69
2016-08-31T00:17:08.083Z,48.79
2016-08-31T00:18:08.067Z,48.69
2016-08-31T00:19:08.061Z,48.79
2016-08-31T00:20:08.035Z,48.69
2016-08-31T00:21:08.019Z,48.49
2016-08-31T00:22:08.019Z,48.49
2016-08-31T00:23:07.990Z,48.88
2016-08-31T00:24:07.975Z,48.39
2016-08-31T00:25:07.957Z,48.49
2016-08-31T00:26:07.946Z,48.76
2016-08-31T00:27:07.225Z,48.88
2016-08-31T00:28:07.926Z,48.88
2016-08-31T00:29:07.893Z,48.49
2016-08-31T00:30:07.886Z,48.79
2016-08-31T00:31:07.168Z,48.66
2016-08-31T00:32:07.847Z,48.86
2016-08-31T00:33:07.832Z,48.95
2016-08-31T00:34:07.821Z,48.59
2016-08-31T00:35:07.093Z,48.86
2016-08-31T00:36:07.105Z,48.76
2016-08-31T00:37:07.061Z,48.79
2016-08-31T00:38:07.755Z,48.76
2016-08-31T00:39:07.739Z,48.76
2016-08-31T00:40:07.025Z,48.37
2016-08-31T00:41:07.710Z,48.76
2016-08-31T00:42:06.987Z,48.66
2016-08-31T00:43:07.689Z,48.57
2016-08-31T00:44:06.964Z,48.47
2016-08-31T00:45:07.645Z,48.69
2016-08-31T00:46:07.630Z,48.79
2016-08-31T00:47:07.613Z,48.76
2016-08-31T00:48:07.610Z,48.66
2016-08-31T00:49:08.729Z,48.76
2016-08-31T00:50:07.570Z,48.66
2016-08-31T00:51:07.552Z,48.59
2016-08-31T00:52:06.823Z,48.86
2016-08-31T00:53:07.531Z,48.79
2016-08-31T00:54:06.796Z,48.79
2016-08-31T00:55:07.494Z,48.57
2016-08-31T00:56:07.477Z,48.79
2016-08-31T00:57:07.463Z,48.69
2016-08-31T00:58:06.733Z,48.69
2016-08-31T00:59:07.436Z,48.79
2016-08-31T01:00:07.424Z,48.66
2016-08-31T01:01:07.396Z,48.66
2016-08-31T01:02:07.383Z,48.66
2016-08-31T01:03:07.373Z,48.66
2016-08-31T01:04:07.354Z,48.66
2016-08-31T01:05:07.341Z,48.69
2016-08-31T01:06:06.609Z,48.76
2016-08-31T01:07:07.317Z,48.39
2016-08-31T01:08:07.287Z,48.86
2016-08-31T01:09:07.290Z,48.76
2016-08-31T01:10:07.258Z,48.59
2016-08-31T01:11:07.241Z,48.76
2016-08-31T01:12:07.240Z,48.66
2016-08-31T01:13:07.213Z,48.79
2016-08-31T01:14:07.199Z,48.79
2016-08-31T01:15:07.178Z,48.76
2016-08-31T01:16:07.163Z,48.59
2016-08-31T01:17:07.151Z,48.59
2016-08-31T01:18:07.133Z,48.49
2016-08-31T01:19:07.114Z,48.88
2016-08-31T01:20:07.111Z,48.79
2016-08-31T01:21:07.083Z,48.59
2016-08-31T01:22:07.066Z,48.88
2016-08-31T01:23:06.354Z,48.52
2016-08-31T01:24:07.039Z,48.81
2016-08-31T01:25:07.210Z,48.81
2016-08-31T01:26:07.009Z,48.61
2016-08-31T01:27:06.990Z,48.81
2016-08-31T01:28:06.263Z,48.71
2016-08-31T01:29:06.255Z,48.81
2016-08-31T01:30:06.942Z,48.9
2016-08-31T01:31:06.929Z,48.9
2016-08-31T01:32:06.912Z,49.19
2016-08-31T01:33:06.905Z,49
2016-08-31T01:34:06.875Z,48.9
2016-08-31T01:35:06.874Z,49.19
2016-08-31T01:36:06.850Z,49.29
2016-08-31T01:37:06.843Z,49.19
2016-08-31T01:38:06.817Z,49.29
2016-08-31T01:39:06.804Z,49.49
2016-08-31T01:40:06.800Z,49.39
2016-08-31T01:41:06.775Z,49.58
2016-08-31T01:42:06.753Z,49.19
2016-08-31T01:43:06.744Z,49.32
2016-08-31T01:44:06.725Z,49.19
2016-08-31T01:45:06.713Z,49.49
2016-08-31T01:46:06.706Z,49.29
2016-08-31T01:47:06.687Z,49.19
2016-08-31T01:48:06.672Z,49.39
2016-08-31T01:49:06.653Z,49.6
2016-08-31T01:50:06.638Z,49.12
2016-08-31T01:51:06.617Z,49.1
2016-08-31T01:52:06.599Z,49.9
2016-08-31T01:53:06.591Z,49.58
2016-08-31T01:54:05.863Z,49.8
2016-08-31T01:55:05.844Z,49.8
2016-08-31T01:56:06.543Z,49.68
2016-08-31T01:57:06.525Z,49.8
2016-08-31T01:58:05.801Z,49.77
2016-08-31T01:59:06.497Z,49.58
2016-08-31T02:00:06.617Z,49.8
2016-08-31T02:01:06.471Z,49.51
2016-08-31T02:02:06.452Z,50.07
2016-08-31T02:03:06.429Z,49.99
2016-08-31T02:04:06.415Z,49.99
2016-08-31T02:05:06.400Z,49.77
2016-08-31T02:06:06.385Z,50.18
2016-08-31T02:07:06.373Z,50.16
2016-08-31T02:08:05.643Z,50.28
2016-08-31T02:09:06.339Z,50.28
2016-08-31T02:10:06.330Z,50.18
2016-08-31T02:11:06.310Z,50.18
2016-08-31T02:12:06.297Z,49.97
2016-08-31T02:13:06.284Z,50.09
2016-08-31T02:14:05.553Z,50.09
2016-08-31T02:15:06.252Z,50.38
2016-08-31T02:16:06.232Z,50.86
2016-08-31T02:17:06.219Z,50.18
2016-08-31T02:18:06.208Z,50.86
2016-08-31T02:19:06.184Z,50.67
2016-08-31T02:20:06.177Z,50.86
2016-08-31T02:21:06.158Z,50.76
2016-08-31T02:22:05.432Z,50.67
2016-08-31T02:23:06.126Z,50.86
2016-08-31T02:24:06.112Z,50.67
2016-08-31T02:25:06.100Z,50.86
2016-08-31T02:26:05.370Z,50.67
2016-08-31T02:27:06.062Z,50.86
2016-08-31T02:28:06.058Z,50.57
2016-08-31T02:29:06.033Z,50.57
2016-08-31T02:30:06.019Z,50.86
2016-08-31T02:31:06.004Z,50.57
2016-08-31T02:32:05.985Z,50.76
2016-08-31T02:33:05.973Z,50.67
2016-08-31T02:34:05.963Z,50.67
2016-08-31T02:35:06.289Z,50.76
2016-08-31T02:36:05.218Z,50.96
2016-08-31T02:37:05.196Z,51.06
2016-08-31T02:38:05.895Z,50.86
2016-08-31T02:39:05.884Z,50.86
2016-08-31T02:40:05.863Z,50.86
2016-08-31T02:41:05.850Z,50.86
2016-08-31T02:42:05.836Z,50.48
2016-08-31T02:43:05.821Z,50.57
2016-08-31T02:44:05.806Z,50.48
2016-08-31T02:45:05.797Z,50.57
2016-08-31T02:46:05.780Z,50.57
2016-08-31T02:47:05.762Z,50.48
2016-08-31T02:48:05.737Z,50.57
2016-08-31T02:49:05.728Z,50.38
2016-08-31T02:50:05.714Z,50.57
2016-08-31T02:51:05.705Z,51.06
2016-08-31T02:52:05.677Z,51.15
2016-08-31T02:53:05.668Z,50.96
2016-08-31T02:54:05.648Z,51.15
2016-08-31T02:55:04.926Z,51.25
2016-08-31T02:56:04.914Z,51.25
2016-08-31T02:57:04.904Z,50.86
2016-08-31T02:58:05.594Z,51.06
2016-08-31T02:59:04.872Z,51.15
2016-08-31T03:00:05.565Z,51.35
2016-08-31T03:01:04.839Z,51.06
2016-08-31T03:02:05.530Z,51.44
2016-08-31T03:03:05.513Z,52.02
2016-08-31T03:04:05.497Z,51.44
2016-08-31T03:05:04.778Z,51.54
2016-08-31T03:06:05.465Z,51.83
2016-08-31T03:07:04.753Z,51.35
2016-08-31T03:08:05.441Z,51.54
2016-08-31T03:09:05.424Z,51.44
2016-08-31T03:10:05.402Z,51.44
2016-08-31T03:11:05.387Z,51.44
2016-08-31T03:12:04.664Z,51.44
2016-08-31T03:13:04.659Z,51.54
2016-08-31T03:14:04.638Z,51.44
2016-08-31T03:15:05.328Z,51.54
2016-08-31T03:16:05.315Z,51.54
2016-08-31T03:17:05.305Z,51.35
2016-08-31T03:18:05.280Z,51.44
2016-08-31T03:19:05.284Z,51.44
2016-08-31T03:20:05.256Z,51.54
2016-08-31T03:21:05.236Z,51.44
2016-08-31T03:22:05.219Z,51.35
2016-08-31T03:23:05.204Z,51.93
2016-08-31T03:24:05.195Z,51.54
2016-08-31T03:25:05.178Z,51.83
2016-08-31T03:26:05.173Z,51.93
2016-08-31T03:27:05.145Z,52.31
2016-08-31T03:28:05.132Z,51.83
2016-08-31T03:29:05.117Z,52.22
2016-08-31T03:30:04.392Z,52.02
2016-08-31T03:31:05.084Z,52.02
2016-08-31T03:32:04.361Z,52.12
2016-08-31T03:33:05.053Z,52.12
2016-08-31T03:34:05.043Z,52.12
2016-08-31T03:35:05.023Z,52.31
2016-08-31T03:36:05.008Z,52.12
2016-08-31T03:37:04.999Z,52.02
2016-08-31T03:38:04.976Z,51.93
2016-08-31T03:39:04.961Z,52.12
2016-08-31T03:40:04.972Z,52.02
2016-08-31T03:41:04.932Z,51.83
2016-08-31T03:42:04.925Z,51.93
2016-08-31T03:43:04.897Z,51.64
2016-08-31T03:44:04.900Z,52.02
2016-08-31T03:45:05.224Z,52.02
2016-08-31T03:46:04.853Z,52.02
2016-08-31T03:47:04.131Z,52.12
2016-08-31T03:48:04.830Z,51.93
2016-08-31T03:49:04.809Z,52.41
2016-08-31T03:50:04.791Z,52.41
2016-08-31T03:51:04.776Z,51.93
2016-08-31T03:52:04.763Z,52.22
2016-08-31T03:53:04.748Z,52.31
2016-08-31T03:54:04.729Z,52.12
2016-08-31T03:55:04.715Z,52.22
2016-08-31T03:56:04.701Z,52.12
2016-08-31T03:57:04.691Z,52.22
2016-08-31T03:58:04.669Z,53.19
2016-08-31T03:59:04.657Z,52.7
2016-08-31T04:00:03.931Z,52.89
2016-08-31T04:01:04.628Z,53.19
2016-08-31T04:02:04.613Z,52.89
2016-08-31T04:03:04.596Z,52.8
2016-08-31T04:04:04.576Z,52.89
2016-08-31T04:05:04.567Z,52.89
2016-08-31T04:06:04.550Z,52.8
2016-08-31T04:07:03.824Z,52.8
2016-08-31T04:08:04.520Z,52.89
2016-08-31T04:09:04.512Z,52.89
2016-08-31T04:10:03.786Z,52.8
2016-08-31T04:11:04.478Z,52.7
2016-08-31T04:12:04.468Z,52.8
2016-08-31T04:13:04.454Z,53.19
2016-08-31T04:14:04.431Z,53.28
2016-08-31T04:15:04.414Z,53.19
2016-08-31T04:16:04.398Z,53.28
2016-08-31T04:17:04.389Z,53.28
2016-08-31T04:18:04.367Z,53.19
2016-08-31T04:19:04.356Z,53.28
2016-08-31T04:20:04.370Z,53.28
2016-08-31T04:21:04.318Z,53.19
2016-08-31T04:22:03.591Z,52.8
2016-08-31T04:23:04.294Z,53.28
2016-08-31T04:24:04.278Z,53.38
2016-08-31T04:25:04.259Z,53.19
2016-08-31T04:26:04.254Z,53.19
2016-08-31T04:27:03.522Z,53.19
2016-08-31T04:28:04.213Z,53.28
2016-08-31T04:29:04.202Z,52.7
2016-08-31T04:30:04.213Z,53.28
2016-08-31T04:31:04.172Z,53.38
2016-08-31T04:32:04.152Z,53.38
2016-08-31T04:33:04.136Z,53.47
2016-08-31T04:34:04.130Z,53.38
2016-08-31T04:35:04.109Z,53.28
2016-08-31T04:36:03.386Z,53.19
2016-08-31T04:37:04.079Z,53.09
2016-08-31T04:38:04.064Z,52.99
2016-08-31T04:39:04.047Z,53.09
2016-08-31T04:40:04.031Z,52.99
2016-08-31T04:41:04.016Z,53.28
2016-08-31T04:42:04.003Z,53.09
2016-08-31T04:43:03.984Z,53.09
2016-08-31T04:44:03.969Z,53.38
2016-08-31T04:45:03.954Z,53.28
2016-08-31T04:46:03.943Z,53.47
2016-08-31T04:47:03.923Z,53.38
2016-08-31T04:48:03.907Z,53.57
2016-08-31T04:49:03.895Z,53.96
2016-08-31T04:50:04.275Z,53.67
2016-08-31T04:51:03.863Z,53.77
2016-08-31T04:52:03.854Z,53.47
2016-08-31T04:53:03.849Z,53.67
2016-08-31T04:54:03.824Z,53.67
2016-08-31T04:55:03.805Z,53.47
2016-08-31T04:56:03.790Z,53.77
2016-08-31T04:57:03.774Z,53.57
2016-08-31T04:58:03.759Z,53.77
2016-08-31T04:59:03.035Z,53.86
2016-08-31T05:00:03.739Z,53.77
2016-08-31T05:01:03.710Z,53.77
2016-08-31T05:02:02.983Z,53.77
2016-08-31T05:03:03.683Z,53.86
2016-08-31T05:04:03.669Z,53.77
2016-08-31T05:05:03.667Z,53.86
2016-08-31T05:06:03.637Z,53.86
2016-08-31T05:07:03.620Z,53.86
2016-08-31T05:08:03.612Z,53.77
2016-08-31T05:09:03.588Z,53.77
2016-08-31T05:10:03.582Z,53.38
2016-08-31T05:11:02.855Z,53.96
2016-08-31T05:12:03.548Z,53.86
2016-08-31T05:13:03.529Z,53.96
2016-08-31T05:14:03.513Z,53.96
2016-08-31T05:15:02.788Z,53.67
2016-08-31T05:16:03.486Z,54.05
2016-08-31T05:17:03.468Z,54.15
2016-08-31T05:18:03.450Z,53.67
2016-08-31T05:19:03.437Z,53.09
2016-08-31T05:20:03.422Z,50.38
2016-08-31T05:21:03.407Z,48.61
2016-08-31T05:22:03.385Z,47.74
2016-08-31T05:23:03.374Z,47.33
2016-08-31T05:24:03.378Z,47.43
2016-08-31T05:25:03.381Z,47.24
2016-08-31T05:26:03.346Z,47.14
2016-08-31T05:27:03.328Z,46.95
2016-08-31T05:28:03.296Z,46.66
2016-08-31T05:29:02.573Z,46.66
2016-08-31T05:30:02.572Z,46.54
2016-08-31T05:31:03.254Z,46.47
2016-08-31T05:32:03.255Z,46.25
2016-08-31T05:33:03.230Z,46.15
2016-08-31T05:34:02.495Z,46.08
2016-08-31T05:35:02.480Z,46.25
2016-08-31T05:36:03.172Z,46.44
2016-08-31T05:37:02.449Z,46.56
2016-08-31T05:38:02.436Z,47.5
2016-08-31T05:39:03.133Z,48.59
2016-08-31T05:40:03.109Z,48.79
2016-08-31T05:41:03.097Z,49.07
2016-08-31T05:42:02.371Z,49.65
2016-08-31T05:43:02.361Z,49.65
2016-08-31T05:44:03.047Z,49.85
2016-08-31T05:45:03.034Z,49.65
2016-08-31T05:46:03.021Z,50.04
2016-08-31T05:47:02.293Z,49.87
2016-08-31T05:48:02.992Z,50.23
2016-08-31T05:49:02.981Z,49.65
2016-08-31T05:50:02.960Z,50.16
2016-08-31T05:51:02.938Z,50.16
2016-08-31T05:52:02.927Z,50.26
2016-08-31T05:53:02.205Z,49.97
2016-08-31T05:54:02.900Z,50.45
2016-08-31T05:55:02.883Z,50.45
2016-08-31T05:56:02.873Z,50.65
2016-08-31T05:57:02.849Z,50.35
2016-08-31T05:58:02.828Z,50.93
2016-08-31T05:59:02.819Z,50.65
2016-08-31T06:00:02.798Z,50.55
2016-08-31T06:01:02.086Z,50.74
2016-08-31T06:02:02.087Z,50.55
2016-08-31T06:03:05.415Z,50.74
2016-08-31T06:04:02.740Z,50.93
2016-08-31T06:05:02.744Z,50.84
2016-08-31T06:06:02.711Z,50.74
2016-08-31T06:07:02.694Z,50.45
2016-08-31T06:08:02.676Z,50.84
2016-08-31T06:09:02.658Z,50.35
2016-08-31T06:10:02.645Z,50.55
2016-08-31T06:11:02.631Z,50.55
2016-08-31T06:12:02.625Z,50.55
2016-08-31T06:13:02.599Z,50.55
2016-08-31T06:14:02.585Z,50.65
2016-08-31T06:15:02.568Z,50.45
2016-08-31T06:16:01.840Z,50.74
2016-08-31T06:17:02.539Z,50.65
2016-08-31T06:18:02.519Z,50.65
2016-08-31T06:19:02.506Z,50.74
2016-08-31T06:20:02.495Z,50.65
2016-08-31T06:21:01.766Z,50.74
2016-08-31T06:22:01.753Z,51.03
2016-08-31T06:23:01.736Z,50.84
2016-08-31T06:24:02.439Z,50.84
2016-08-31T06:25:02.529Z,50.84
2016-08-31T06:26:02.397Z,50.84
2016-08-31T06:27:01.683Z,51.03
2016-08-31T06:28:02.367Z,50.74
2016-08-31T06:29:02.352Z,50.65
2016-08-31T06:30:01.626Z,50.93
2016-08-31T06:31:02.322Z,50.74
2016-08-31T06:32:02.307Z,50.74
2016-08-31T06:33:02.298Z,50.74
2016-08-31T06:34:02.273Z,51.13
2016-08-31T06:35:02.261Z,51.03
2016-08-31T06:36:01.536Z,50.93
2016-08-31T06:37:01.517Z,50.84
2016-08-31T06:38:02.210Z,51.13
2016-08-31T06:39:02.204Z,50.84
2016-08-31T06:40:02.179Z,50.84
2016-08-31T06:41:02.172Z,51.51
2016-08-31T06:42:02.153Z,51.23
2016-08-31T06:43:02.141Z,51.42
2016-08-31T06:44:02.124Z,51.32
2016-08-31T06:45:01.397Z,51.32
2016-08-31T06:46:02.092Z,51.42
2016-08-31T06:47:02.076Z,51.61
2016-08-31T06:48:02.057Z,51.71
2016-08-31T06:49:02.045Z,51.61
2016-08-31T06:50:01.324Z,51.51
2016-08-31T06:51:02.009Z,51.51
2016-08-31T06:52:01.997Z,52
2016-08-31T06:53:01.982Z,51.61
2016-08-31T06:54:01.260Z,51.42
2016-08-31T06:55:01.969Z,51.42
2016-08-31T06:56:01.935Z,51.42
2016-08-31T06:57:01.928Z,51.51
2016-08-31T06:58:01.195Z,51.51
2016-08-31T06:59:01.888Z,51.13
2016-08-31T07:00:02.609Z,51.71
2016-08-31T07:01:01.859Z,51.42
2016-08-31T07:02:01.841Z,51.23
2016-08-31T07:03:01.827Z,51.32
2016-08-31T07:04:01.816Z,51.42
2016-08-31T07:05:01.794Z,52.29
2016-08-31T07:06:01.787Z,51.32
2016-08-31T07:07:01.769Z,51.9
2016-08-31T07:08:01.754Z,52.29
2016-08-31T07:09:01.738Z,52
2016-08-31T07:10:01.724Z,52.09
2016-08-31T07:11:01.704Z,52.09
2016-08-31T07:12:01.687Z,52.09
2016-08-31T07:13:01.684Z,52.09
2016-08-31T07:14:00.947Z,52
2016-08-31T07:15:01.648Z,52.29
2016-08-31T07:16:01.623Z,52
2016-08-31T07:17:01.613Z,52.29
2016-08-31T07:18:01.602Z,52.09
2016-08-31T07:19:00.870Z,52.09
2016-08-31T07:20:01.572Z,52
2016-08-31T07:21:01.583Z,52.09
2016-08-31T07:22:01.529Z,51.9
2016-08-31T07:23:00.811Z,51.81
2016-08-31T07:24:00.800Z,51.64
2016-08-31T07:25:01.484Z,52
2016-08-31T07:26:01.485Z,52.22
2016-08-31T07:27:01.464Z,51.83
2016-08-31T07:28:01.442Z,52.02
2016-08-31T07:29:01.432Z,51.9
2016-08-31T07:30:01.421Z,51.93
2016-08-31T07:31:01.398Z,52.19
2016-08-31T07:32:01.382Z,52.29
2016-08-31T07:33:01.366Z,52.19
2016-08-31T07:34:01.353Z,52.31
2016-08-31T07:35:01.338Z,52.12
2016-08-31T07:36:01.403Z,52.51
2016-08-31T07:37:01.307Z,52.41
2016-08-31T07:38:01.289Z,52.51
2016-08-31T07:39:01.285Z,52.48
2016-08-31T07:40:01.255Z,52.51
2016-08-31T07:41:01.244Z,52.61
2016-08-31T07:42:01.227Z,52.51
2016-08-31T07:43:00.504Z,52.61
2016-08-31T07:44:00.485Z,52.31
2016-08-31T07:45:01.183Z,52.7
2016-08-31T07:46:01.166Z,53.19
2016-08-31T07:47:00.442Z,53.09
2016-08-31T07:48:00.429Z,53.28
2016-08-31T07:49:01.130Z,52.99
2016-08-31T07:50:01.111Z,52.99
2016-08-31T07:51:00.378Z,52.99
2016-08-31T07:52:01.073Z,52.97
2016-08-31T07:53:01.060Z,52.89
2016-08-31T07:54:01.053Z,52.8
2016-08-31T07:55:01.028Z,52.89
2016-08-31T07:56:01.014Z,52.99
2016-08-31T07:57:01.013Z,52.8
2016-08-31T07:58:00.986Z,52.8
2016-08-31T07:59:00.969Z,52.8
2016-08-31T08:00:00.950Z,52.8
2016-08-31T08:01:00.228Z,52.8
2016-08-31T08:02:00.213Z,52.8
2016-08-31T08:03:00.218Z,52.89
2016-08-31T08:04:00.197Z,53.19
2016-08-31T08:05:00.171Z,52.61
2016-08-31T08:06:00.187Z,53.09
2016-08-31T08:07:00.895Z,53.19
2016-08-31T08:08:00.135Z,53.38
2016-08-31T08:09:00.806Z,53.09
2016-08-31T08:10:00.821Z,53.19
2016-08-31T08:11:00.785Z,53.06
2016-08-31T08:12:00.765Z,53.09
2016-08-31T08:13:00.750Z,53.25
2016-08-31T08:14:00.748Z,53.25
2016-08-31T08:15:00.722Z,53.28
2016-08-31T08:16:00.708Z,53.16
2016-08-31T08:17:00.695Z,53.19
2016-08-31T08:18:00.675Z,53.38
2016-08-31T08:19:00.659Z,53.16
2016-08-31T08:20:00.647Z,53.06
2016-08-31T08:21:00.630Z,53.19
2016-08-31T08:22:00.621Z,52.61
2016-08-31T08:23:00.601Z,53.19
2016-08-31T08:23:59.873Z,53.16
2016-08-31T08:25:00.565Z,53.19
2016-08-31T08:26:00.559Z,52.97
2016-08-31T08:27:00.538Z,52.87
2016-08-31T08:28:00.521Z,52.97
2016-08-31T08:29:00.506Z,51.9
2016-08-31T08:30:00.497Z,52
2016-08-31T08:31:00.473Z,52.97
2016-08-31T08:32:00.460Z,51.9
2016-08-31T08:33:00.444Z,50.65
2016-08-31T08:34:00.432Z,50.65
2016-08-31T08:35:00.409Z,51.32
2016-08-31T08:36:00.413Z,51.61
2016-08-31T08:37:00.440Z,52.09
2016-08-31T08:38:00.369Z,53.25
2016-08-31T08:39:00.354Z,52.48
2016-08-31T08:40:00.343Z,52.48
2016-08-31T08:40:59.611Z,53.16
2016-08-31T08:42:00.306Z,52.19
2016-08-31T08:43:00.291Z,52.97
2016-08-31T08:43:59.567Z,52.87
2016-08-31T08:45:00.262Z,52.77
2016-08-31T08:45:59.536Z,52.87
2016-08-31T08:47:00.232Z,52.87
2016-08-31T08:47:59.509Z,52.77
2016-08-31T08:48:59.493Z,53.09
2016-08-31T08:49:59.478Z,52.87
2016-08-31T08:50:59.462Z,52.77
2016-08-31T08:52:00.158Z,52.77
2016-08-31T08:53:00.142Z,52.87
2016-08-31T08:54:00.134Z,52.8
2016-08-31T08:55:00.112Z,52.67
2016-08-31T08:56:00.097Z,52.77
2016-08-31T08:56:59.372Z,53.28
2016-08-31T08:58:00.062Z,52.58
2016-08-31T08:58:59.345Z,52.89
2016-08-31T09:00:00.029Z,52.67
2016-08-31T09:01:00.018Z,52.77
2016-08-31T09:01:59.297Z,52.77
2016-08-31T09:02:59.990Z,53.28
2016-08-31T09:03:59.973Z,51.13
2016-08-31T09:04:59.960Z,50.65
2016-08-31T09:05:59.234Z,52
2016-08-31T09:06:59.925Z,52.29
2016-08-31T09:07:59.209Z,51.32
2016-08-31T09:08:59.187Z,50.74
2016-08-31T09:09:59.877Z,51.42
2016-08-31T09:10:59.157Z,51.51
2016-08-31T09:11:59.866Z,50.74
2016-08-31T09:12:59.836Z,51.23
2016-08-31T09:13:59.819Z,50.74
2016-08-31T09:14:59.810Z,51.51
2016-08-31T09:15:59.788Z,52.09
2016-08-31T09:16:59.779Z,51.13
2016-08-31T09:17:59.767Z,51.51
2016-08-31T09:18:59.033Z,50.74
2016-08-31T09:19:59.726Z,50.55
2016-08-31T09:20:59.710Z,50.65
2016-08-31T09:21:59.696Z,49.58
2016-08-31T09:22:59.676Z,50.07
2016-08-31T09:23:59.665Z,50.35
2016-08-31T09:24:59.651Z,50.35
2016-08-31T09:25:59.632Z,50.74
2016-08-31T09:26:58.909Z,49.87
2016-08-31T09:27:58.897Z,49.58
2016-08-31T09:28:59.585Z,49.19
2016-08-31T09:29:58.863Z,49.77
2016-08-31T09:30:58.853Z,49.68
2016-08-31T09:31:58.844Z,49.77
2016-08-31T09:32:59.526Z,50.45
2016-08-31T09:33:58.817Z,50.07
2016-08-31T09:34:59.496Z,50.45
2016-08-31T09:35:59.486Z,50.07
2016-08-31T09:36:59.476Z,49.1
2016-08-31T09:37:59.450Z,49.68
2016-08-31T09:38:59.445Z,49.77
2016-08-31T09:39:59.427Z,50.16
2016-08-31T09:40:59.417Z,49.97
2016-08-31T09:41:59.393Z,50.65
2016-08-31T09:42:59.371Z,50.55
2016-08-31T09:43:59.354Z,50.84
2016-08-31T09:44:59.343Z,51.42
2016-08-31T09:45:59.326Z,51.32
2016-08-31T09:46:59.310Z,49.49
2016-08-31T09:47:59.305Z,48.81
2016-08-31T09:48:59.290Z,48.81
2016-08-31T09:49:58.553Z,49.39
2016-08-31T09:50:59.250Z,48.9
2016-08-31T09:51:59.234Z,47.74
2016-08-31T09:52:59.219Z,49
2016-08-31T09:53:59.202Z,48.71
2016-08-31T09:54:59.182Z,49.49
2016-08-31T09:55:58.460Z,48.81
2016-08-31T09:56:59.156Z,46.49
2016-08-31T09:57:59.139Z,47.65
2016-08-31T09:58:59.131Z,46.49
2016-08-31T09:59:59.110Z,47.55
2016-08-31T10:00:59.110Z,47.36
2016-08-31T10:01:59.074Z,48.9
2016-08-31T10:02:58.374Z,49.77
2016-08-31T10:03:59.049Z,50.26
2016-08-31T10:04:58.323Z,50.74
2016-08-31T10:05:59.018Z,50.74
2016-08-31T10:06:59.006Z,50.84
2016-08-31T10:07:58.277Z,50.48
2016-08-31T10:08:58.966Z,50.57
2016-08-31T10:09:58.956Z,50.84
2016-08-31T10:10:58.240Z,51.06
2016-08-31T10:11:58.918Z,50.86
2016-08-31T10:12:58.907Z,50.45
2016-08-31T10:13:58.903Z,50.74
2016-08-31T10:14:58.877Z,50.57
2016-08-31T10:15:58.864Z,50.76
2016-08-31T10:16:58.853Z,50.67
2016-08-31T10:17:58.832Z,50.55
2016-08-31T10:18:58.814Z,50.48
2016-08-31T10:19:58.811Z,50.86
2016-08-31T10:20:58.789Z,50.76
2016-08-31T10:21:58.062Z,50.76
2016-08-31T10:22:58.761Z,50.84
2016-08-31T10:23:58.748Z,51.03
2016-08-31T10:24:58.021Z,50.67
2016-08-31T10:25:58.719Z,50.84
2016-08-31T10:26:58.718Z,50.45
2016-08-31T10:27:57.971Z,50.57
2016-08-31T10:28:58.669Z,50.57
2016-08-31T10:29:57.942Z,50.76
2016-08-31T10:30:58.634Z,50.76
2016-08-31T10:31:58.622Z,50.86
2016-08-31T10:32:58.604Z,50.96
2016-08-31T10:33:58.597Z,51.15
2016-08-31T10:34:58.572Z,51.44
2016-08-31T10:35:57.847Z,51.35
2016-08-31T10:36:58.541Z,51.44
2016-08-31T10:37:58.522Z,51.44
2016-08-31T10:38:58.511Z,51.54
2016-08-31T10:39:58.497Z,51.15
2016-08-31T10:40:58.481Z,51.54
2016-08-31T10:41:58.468Z,51.44
2016-08-31T10:42:58.449Z,51.25
2016-08-31T10:43:58.450Z,51.83
2016-08-31T10:44:58.418Z,51.44
2016-08-31T10:45:57.692Z,51.83
2016-08-31T10:46:57.687Z,52.31
2016-08-31T10:47:57.673Z,52.12
2016-08-31T10:48:58.358Z,52.12
2016-08-31T10:49:57.647Z,52.22
2016-08-31T10:50:57.633Z,52.02
2016-08-31T10:51:58.317Z,52.12
2016-08-31T10:52:58.322Z,51.83
2016-08-31T10:53:58.278Z,53.09
2016-08-31T10:54:57.565Z,52.89
2016-08-31T10:55:58.258Z,52.99
2016-08-31T10:56:58.234Z,52.7
2016-08-31T10:57:58.224Z,52.31
2016-08-31T10:58:57.522Z,52.89
2016-08-31T10:59:57.487Z,52.99
2016-08-31T11:00:58.171Z,52.99
2016-08-31T11:01:57.501Z,52.89
2016-08-31T11:02:57.486Z,53.19
2016-08-31T11:03:58.131Z,53.09
2016-08-31T11:04:57.418Z,52.51
2016-08-31T11:05:58.102Z,52.61
2016-08-31T11:06:57.385Z,52.7
2016-08-31T11:07:58.066Z,52.99
2016-08-31T11:08:57.357Z,52.8
2016-08-31T11:09:58.047Z,52.41
2016-08-31T11:10:57.322Z,52.41
2016-08-31T11:11:58.017Z,53.21
2016-08-31T11:12:57.291Z,52.51
2016-08-31T11:13:57.281Z,52.61
2016-08-31T11:14:57.964Z,52.24
2016-08-31T11:15:57.951Z,52.51
2016-08-31T11:16:57.231Z,52.41
2016-08-31T11:17:57.928Z,52.02
2016-08-31T11:18:57.911Z,52.41
2016-08-31T11:19:57.893Z,52.41
2016-08-31T11:20:57.887Z,52.61
2016-08-31T11:21:57.855Z,52.12
2016-08-31T11:22:57.843Z,52.22
2016-08-31T11:23:57.139Z,52.51
2016-08-31T11:24:57.817Z,52.41
2016-08-31T11:25:57.794Z,52.31
2016-08-31T11:26:57.786Z,52.51
2016-08-31T11:27:57.775Z,51.83
2016-08-31T11:28:57.755Z,52.24
2016-08-31T11:29:57.739Z,52.12
2016-08-31T11:30:57.726Z,52.22
2016-08-31T11:31:56.996Z,51.95
2016-08-31T11:32:57.693Z,52.02
2016-08-31T11:33:57.680Z,52.02
2016-08-31T11:34:57.673Z,52.12
2016-08-31T11:35:57.651Z,52.14
2016-08-31T11:36:57.632Z,52.14
2016-08-31T11:37:57.625Z,52.12
2016-08-31T11:38:56.894Z,51.93
2016-08-31T11:39:56.892Z,52.05
2016-08-31T11:40:57.572Z,52.14
2016-08-31T11:41:57.561Z,51.83
2016-08-31T11:42:57.544Z,52.02
2016-08-31T11:43:57.529Z,52.24
2016-08-31T11:44:56.802Z,52.05
2016-08-31T11:45:57.498Z,52.12
2016-08-31T11:46:57.483Z,52.12
2016-08-31T11:47:56.766Z,52.14
2016-08-31T11:48:57.451Z,52.22
2016-08-31T11:49:56.736Z,51.93
2016-08-31T11:50:56.714Z,51.76
2016-08-31T11:51:56.700Z,51.66
2016-08-31T11:52:57.391Z,51.35
2016-08-31T11:53:57.382Z,51.56
2016-08-31T11:54:56.649Z,51.56
2016-08-31T11:55:56.637Z,52.05
2016-08-31T11:56:56.624Z,51.95
2016-08-31T11:57:56.613Z,51.54
2016-08-31T11:58:56.591Z,51.95
2016-08-31T11:59:56.576Z,51.35
2016-08-31T12:00:57.265Z,51.28
2016-08-31T12:01:57.255Z,51.47
2016-08-31T12:02:57.239Z,51.66
2016-08-31T12:03:56.516Z,51.44
2016-08-31T12:04:57.206Z,52.34
2016-08-31T12:05:56.496Z,52.14
2016-08-31T12:06:56.469Z,51.95
2016-08-31T12:07:57.167Z,52.05
2016-08-31T12:08:57.152Z,52.14
2016-08-31T12:09:57.137Z,52.05
2016-08-31T12:10:57.131Z,52.05
2016-08-31T12:11:56.404Z,52.14
2016-08-31T12:12:57.092Z,52.05
2016-08-31T12:13:56.384Z,51.86
2016-08-31T12:14:57.101Z,52.05
2016-08-31T12:15:57.113Z,51.95
2016-08-31T12:16:57.034Z,51.95
2016-08-31T12:17:57.014Z,51.95
2016-08-31T12:18:57.001Z,52.14
2016-08-31T12:19:56.987Z,52.41
2016-08-31T12:20:56.965Z,52.24
2016-08-31T12:21:56.957Z,52.44
2016-08-31T12:22:56.944Z,52.53
2016-08-31T12:23:56.922Z,52.63
2016-08-31T12:24:56.910Z,52.53
2016-08-31T12:30:11.840Z,53.11
2016-08-31T12:31:11.830Z,53.11
2016-08-31T12:32:11.813Z,53.21
2016-08-31T12:33:11.804Z,53.02
2016-08-31T12:34:11.078Z,52.82
2016-08-31T12:35:11.062Z,53.11
2016-08-31T12:36:11.757Z,53.02
2016-08-31T12:37:11.743Z,52.63
2016-08-31T12:38:11.023Z,53.02
2016-08-31T12:39:11.717Z,52.82
2016-08-31T12:40:11.695Z,52.82
2016-08-31T12:41:10.968Z,52.82
2016-08-31T12:42:11.666Z,52.92
2016-08-31T12:43:10.936Z,52.63
2016-08-31T12:44:10.925Z,52.82
2016-08-31T12:45:11.630Z,53.11
2016-08-31T12:46:11.620Z,52.82
2016-08-31T12:47:10.881Z,53.11
2016-08-31T12:48:11.575Z,53.02
2016-08-31T12:49:11.555Z,52.73
2016-08-31T12:50:10.835Z,52.73
2016-08-31T12:51:11.539Z,52.44
2016-08-31T12:52:11.520Z,52.08
2016-08-31T12:53:11.500Z,52.17
2016-08-31T12:54:10.772Z,51.59
2016-08-31T12:55:42.831Z,50.92
2016-08-31T12:56:11.463Z,51.13
2016-08-31T12:57:10.869Z,50.45
2016-08-31T12:58:10.725Z,50.74